createdAt,value
2023-05-16T00:03:39.363Z,14.60
2023-05-16T00:09:41.563Z,14.50
2023-05-16T00:15:44.414Z,14.50
2023-05-16T00:21:46.817Z,14.50
2023-05-16T00:27:49.072Z,14.50
2023-05-16T00:33:51.533Z,14.50
2023-05-16T00:39:53.722Z,14.40
2023-05-16T00:45:58.326Z,14.30
2023-05-16T00:52:01.108Z,14.30
2023-05-16T00:58:03.318Z,14.20
2023-05-16T01:04:06.556Z,14.30
2023-05-16T01:10:10.454Z,14.20
2023-05-16T01:16:40.601Z,14.00
2023-05-16T01:22:46.448Z,14.00
2023-05-16T01:28:53.577Z,14.10
2023-05-16T01:34:55.844Z,14.20
2023-05-16T01:40:57.955Z,14.20
2023-05-16T01:47:04.186Z,14.30
2023-05-16T01:53:11.648Z,14.30
2023-05-16T01:59:14.665Z,14.30
2023-05-16T02:05:16.904Z,14.30
2023-05-16T02:11:18.972Z,14.30
2023-05-16T02:17:21.536Z,14.40
2023-05-16T02:23:23.666Z,14.20
2023-05-16T02:29:25.813Z,14.20
2023-05-16T02:35:28.340Z,14.20
2023-05-16T02:41:30.690Z,14.00
2023-05-16T02:47:33.073Z,14.00
2023-05-16T02:53:35.295Z,13.90
2023-05-16T02:59:37.490Z,13.90
2023-05-16T03:05:40.040Z,13.80
2023-05-16T03:11:42.216Z,13.90
2023-05-16T03:17:44.418Z,13.90
2023-05-16T03:23:46.605Z,13.90
2023-05-16T03:29:48.921Z,14.00
2023-05-16T03:35:51.425Z,14.10
2023-05-16T03:41:56.476Z,14.20
2023-05-16T03:47:59.106Z,14.40
2023-05-16T03:54:01.400Z,14.50
2023-05-16T04:00:08.444Z,14.60
2023-05-16T04:06:13.924Z,14.70
2023-05-16T04:12:17.875Z,14.80
2023-05-16T04:18:20.291Z,14.70
2023-05-16T04:24:26.707Z,14.80
2023-05-16T04:30:29.007Z,14.90
2023-05-16T04:36:32.000Z,15.20
2023-05-16T04:42:34.847Z,15.20
2023-05-16T04:48:37.442Z,15.30
2023-05-16T04:54:40.099Z,15.50
2023-05-16T05:00:42.311Z,15.70
2023-05-16T05:06:44.589Z,16.00
2023-05-16T05:12:46.586Z,16.10
2023-05-16T05:18:49.096Z,16.50
2023-05-16T05:24:52.099Z,16.90
2023-05-16T05:30:54.265Z,17.60
2023-05-16T05:36:56.922Z,18.00
2023-05-16T05:42:58.971Z,17.90
2023-05-16T05:49:01.510Z,18.30
2023-05-16T05:55:03.695Z,18.20
2023-05-16T06:01:06.374Z,18.20
2023-05-16T06:07:08.551Z,18.30
2023-05-16T06:13:10.928Z,18.40
2023-05-16T06:19:16.494Z,18.20
2023-05-16T06:25:18.744Z,18.10
2023-05-16T06:31:21.143Z,18.70
2023-05-16T06:37:23.896Z,19.30
2023-05-16T06:43:26.948Z,19.60
2023-05-16T06:49:29.545Z,20.10
2023-05-16T06:55:31.797Z,20.20
2023-05-16T07:01:34.483Z,23.00
2023-05-16T07:07:40.570Z,24.60
2023-05-16T07:13:42.736Z,25.60
2023-05-16T07:19:44.928Z,25.00
2023-05-16T07:25:47.412Z,26.20
2023-05-16T07:31:49.683Z,26.00
2023-05-16T07:37:51.974Z,27.60
2023-05-16T07:43:54.170Z,26.30
2023-05-16T07:49:56.895Z,25.80
2023-05-16T07:55:59.798Z,27.30
2023-05-16T08:02:02.677Z,26.90
2023-05-16T08:08:04.993Z,26.90
2023-05-16T08:14:07.443Z,27.30
2023-05-16T08:20:09.972Z,27.40
2023-05-16T08:26:12.978Z,27.10
2023-05-16T08:32:15.347Z,25.30
2023-05-16T08:38:17.450Z,24.40
2023-05-16T08:44:22.294Z,24.00
2023-05-16T08:50:25.786Z,24.10
2023-05-16T08:56:31.688Z,26.20
2023-05-16T09:02:34.076Z,26.70
2023-05-16T09:08:36.434Z,28.80
2023-05-16T09:14:38.754Z,26.90
2023-05-16T09:20:47.338Z,26.70
2023-05-16T09:26:49.465Z,28.60
2023-05-16T09:32:54.701Z,29.10
2023-05-16T09:38:57.281Z,28.70
2023-05-16T09:45:02.900Z,28.90
2023-05-16T09:51:06.706Z,29.10
2023-05-16T09:57:09.661Z,29.50
2023-05-16T10:03:12.787Z,28.90
2023-05-16T10:09:16.869Z,29.40
2023-05-16T10:15:21.021Z,30.20
2023-05-16T10:21:25.965Z,30.50
2023-05-16T10:27:28.446Z,28.50
2023-05-16T10:33:31.463Z,27.60
2023-05-16T10:39:34.213Z,28.60
2023-05-16T10:45:42.224Z,29.50
2023-05-16T10:51:44.338Z,28.80
2023-05-16T10:57:47.715Z,29.70
2023-05-16T11:04:05.066Z,29.60
2023-05-16T11:10:17.988Z,29.00
2023-05-16T11:16:30.335Z,28.80
2023-05-16T11:22:41.814Z,28.40
2023-05-16T11:28:44.221Z,28.90
2023-05-16T11:34:48.544Z,29.70
2023-05-16T11:40:50.905Z,29.50
2023-05-16T11:46:53.277Z,29.80
2023-05-16T11:52:57.914Z,29.80
2023-05-16T11:59:01.122Z,28.70
2023-05-16T12:05:10.443Z,28.60
2023-05-16T12:11:13.115Z,28.30
2023-05-16T12:17:15.520Z,28.50
2023-05-16T12:23:17.839Z,29.00
2023-05-16T12:29:22.169Z,28.50
2023-05-16T12:35:31.463Z,27.80
2023-05-16T12:41:33.784Z,27.20
2023-05-16T12:47:37.962Z,26.90
2023-05-16T12:53:54.451Z,26.60
2023-05-16T13:00:08.421Z,26.60
2023-05-16T13:06:10.811Z,26.60
2023-05-16T13:12:14.613Z,26.50
2023-05-16T13:18:17.034Z,26.70
2023-05-16T13:24:19.194Z,26.90
2023-05-16T13:30:21.448Z,27.20
2023-05-16T13:36:23.823Z,27.30
2023-05-16T13:42:26.348Z,27.40
2023-05-16T13:48:28.687Z,27.90
2023-05-16T13:54:31.303Z,27.50
2023-05-16T14:00:45.649Z,27.10
2023-05-16T14:06:53.152Z,26.80
2023-05-16T14:12:56.184Z,26.60
2023-05-16T14:18:58.486Z,26.70
2023-05-16T14:25:00.817Z,26.60
2023-05-16T14:31:03.186Z,26.70
2023-05-16T14:37:05.586Z,26.60
2023-05-16T14:43:07.920Z,26.40
2023-05-16T14:49:10.386Z,26.30
2023-05-16T14:55:13.154Z,26.20
2023-05-16T15:01:16.960Z,26.20
2023-05-16T15:07:19.105Z,26.00
2023-05-16T15:13:21.419Z,25.80
2023-05-16T15:19:23.631Z,25.70
2023-05-16T15:25:26.215Z,25.70
2023-05-16T15:31:28.638Z,25.70
2023-05-16T15:37:31.367Z,25.60
2023-05-16T15:43:33.437Z,25.50
2023-05-16T15:49:35.776Z,25.30
2023-05-16T15:55:38.453Z,25.10
2023-05-16T16:01:41.183Z,24.90
2023-05-16T16:07:43.589Z,24.70
2023-05-16T16:13:45.844Z,24.60
2023-05-16T16:19:48.092Z,24.50
2023-05-16T16:25:50.582Z,24.40
2023-05-16T16:31:53.521Z,24.20
2023-05-16T16:38:06.268Z,24.00
2023-05-16T16:44:09.216Z,23.90
2023-05-16T16:50:11.803Z,23.70
2023-05-16T16:56:14.503Z,23.50
2023-05-16T17:02:16.798Z,23.30
2023-05-16T17:08:19.308Z,23.10
2023-05-16T17:14:21.905Z,22.90
2023-05-16T17:20:24.610Z,22.60
2023-05-16T17:26:29.400Z,22.40
2023-05-16T17:32:31.964Z,22.20
2023-05-16T17:38:34.959Z,22.00
2023-05-16T17:44:37.371Z,21.80
2023-05-16T17:50:39.579Z,21.60
2023-05-16T17:56:43.068Z,21.30
2023-05-16T18:02:45.211Z,21.10
2023-05-16T18:08:48.073Z,21.00
2023-05-16T18:14:50.790Z,20.60
2023-05-16T18:20:53.035Z,20.60
2023-05-16T18:26:55.386Z,20.40
2023-05-16T18:32:57.803Z,20.20
2023-05-16T18:39:00.439Z,20.10
2023-05-16T18:45:03.782Z,19.80
2023-05-16T18:51:06.020Z,19.70
2023-05-16T18:57:09.007Z,19.50
2023-05-16T19:03:13.561Z,19.30
2023-05-16T19:09:16.297Z,19.20
2023-05-16T19:15:19.054Z,19.00
2023-05-16T19:21:21.410Z,18.90
2023-05-16T19:27:23.623Z,18.70
2023-05-16T19:33:25.838Z,18.50
2023-05-16T19:39:28.219Z,18.40
2023-05-16T19:45:30.816Z,18.30
2023-05-16T19:51:41.227Z,18.10
2023-05-16T19:57:44.016Z,17.90
2023-05-16T20:03:46.892Z,17.80
2023-05-16T20:09:49.424Z,17.60
2023-05-16T20:15:51.743Z,17.50
2023-05-16T20:21:53.842Z,17.30
2023-05-16T20:27:55.985Z,17.20
2023-05-16T20:33:58.716Z,17.20
2023-05-16T20:40:01.049Z,17.00
2023-05-16T20:46:03.355Z,17.00
2023-05-16T20:52:06.721Z,16.90
2023-05-16T20:58:09.165Z,16.80
2023-05-16T21:04:11.514Z,16.70
2023-05-16T21:10:14.136Z,16.50
2023-05-16T21:16:16.332Z,16.40
2023-05-16T21:22:18.685Z,16.30
2023-05-16T21:28:21.060Z,16.20
2023-05-16T21:34:23.205Z,16.00
2023-05-16T21:40:26.103Z,15.90
2023-05-16T21:46:28.296Z,15.70
2023-05-16T21:52:31.008Z,15.60
2023-05-16T21:58:33.247Z,15.50
2023-05-16T22:04:35.729Z,15.40
2023-05-16T22:10:38.219Z,15.20
2023-05-16T22:16:40.641Z,15.20
2023-05-16T22:22:44.989Z,15.10
2023-05-16T22:28:47.236Z,15.00
2023-05-16T22:34:49.662Z,15.00
2023-05-16T22:40:52.115Z,14.90
2023-05-16T22:46:54.339Z,14.90
2023-05-16T22:52:56.577Z,14.80
2023-05-16T22:58:59.003Z,14.80
2023-05-16T23:05:01.418Z,14.80
2023-05-16T23:11:03.702Z,14.70
2023-05-16T23:17:06.425Z,14.70
2023-05-16T23:23:08.773Z,14.70
2023-05-16T23:29:11.441Z,14.70
2023-05-16T23:35:13.919Z,14.60
2023-05-16T23:41:16.143Z,14.60
2023-05-16T23:47:18.274Z,14.60
2023-05-16T23:53:21.412Z,14.60
2023-05-16T23:59:23.814Z,14.50
